Terminal Aerodrome Forecast
Issued by NWS Melbourne, FL

Home | Current Version | Previous Version | Text Only | Print | Product List | Glossary On
Versions: 1 2 3 4 5 6 7 8 9 10 11 12 13 14 15 16 17 18 19 20 21 22 23
938
FTUS42 KMLB 080852 AAA
TAFMCO
TAF AMD
KMCO 080852Z 0809/0906 26005KT P6SM SKC
     FM081500 26012KT P6SM FEW040 SCT250
     FM081800 25017G22KT P6SM SCT040 SCT250
     FM090000 25015G20KT P6SM VCSH BKN040=

USA.gov is the U.S. government's official web portal to all federal, state and local government web resources and services.